createdAt,value
2022-08-21T00:01:08.822Z,4.00
2022-08-21T00:03:37.472Z,4.43
2022-08-21T00:06:06.177Z,3.50
2022-08-21T00:08:35.572Z,4.53
2022-08-21T00:11:06.080Z,4.00
2022-08-21T00:13:34.602Z,3.73
2022-08-21T00:16:03.391Z,3.73
2022-08-21T00:18:31.977Z,3.60
2022-08-21T00:21:00.601Z,3.80
2022-08-21T00:23:29.110Z,3.60
2022-08-21T00:25:57.584Z,3.63
2022-08-21T00:28:27.353Z,3.97
2022-08-21T00:30:55.795Z,3.63
2022-08-21T00:33:24.496Z,3.37
2022-08-21T00:35:53.053Z,3.03
2022-08-21T00:38:21.532Z,3.50
2022-08-21T00:40:52.712Z,4.00
2022-08-21T00:43:24.323Z,4.23
2022-08-21T00:45:54.721Z,4.30
2022-08-21T00:48:23.824Z,4.40
2022-08-21T00:50:55.359Z,4.13
2022-08-21T00:53:23.971Z,4.23
2022-08-21T00:55:53.155Z,4.30
2022-08-21T00:58:25.975Z,4.70
2022-08-21T01:00:55.872Z,4.60
2022-08-21T01:03:26.194Z,5.83
2022-08-21T01:05:55.568Z,5.10
2022-08-21T01:08:25.000Z,5.93
2022-08-21T01:10:56.011Z,7.10
2022-08-21T01:13:28.788Z,7.40
2022-08-21T01:16:01.321Z,8.37
2022-08-21T01:18:30.169Z,11.90
2022-08-21T01:21:09.907Z,16.27
2022-08-21T01:23:44.196Z,20.07
2022-08-21T01:26:13.334Z,17.50
2022-08-21T01:28:44.871Z,17.80
2022-08-21T01:31:14.662Z,14.93
2022-08-21T01:33:43.138Z,16.03
2022-08-21T01:36:12.907Z,15.60
2022-08-21T01:38:41.325Z,14.80
2022-08-21T01:41:10.422Z,14.57
2022-08-21T01:43:39.792Z,12.80
2022-08-21T01:46:08.651Z,12.90
2022-08-21T01:48:37.976Z,13.70
2022-08-21T01:51:07.626Z,13.43
2022-08-21T01:53:38.290Z,11.30
2022-08-21T01:56:12.740Z,13.17
2022-08-21T01:58:42.287Z,11.67
2022-08-21T02:01:11.388Z,8.47
2022-08-21T02:03:40.414Z,8.50
2022-08-21T02:06:16.097Z,9.30
2022-08-21T02:08:46.885Z,8.93
2022-08-21T02:11:15.910Z,8.53
2022-08-21T02:13:44.768Z,8.90
2022-08-21T02:16:19.139Z,8.33
2022-08-21T02:18:48.762Z,7.80
2022-08-21T02:21:17.310Z,7.97
2022-08-21T02:23:47.377Z,7.30
2022-08-21T02:26:15.795Z,7.10
2022-08-21T02:28:44.488Z,7.57
2022-08-21T02:31:13.385Z,7.33
2022-08-21T02:33:41.965Z,8.20
2022-08-21T02:36:11.659Z,7.30
2022-08-21T02:38:41.823Z,7.70
2022-08-21T02:41:14.403Z,8.07
2022-08-21T02:43:43.439Z,7.83
2022-08-21T02:46:14.024Z,7.43
2022-08-21T02:48:42.973Z,7.70
2022-08-21T02:51:13.913Z,7.03
2022-08-21T02:53:42.756Z,7.50
2022-08-21T02:56:16.366Z,7.33
2022-08-21T02:58:46.630Z,6.17
2022-08-21T03:01:16.636Z,6.53
2022-08-21T03:03:47.222Z,6.67
2022-08-21T03:06:16.950Z,5.97
2022-08-21T03:08:46.724Z,5.27
2022-08-21T03:11:18.522Z,5.60
2022-08-21T03:13:46.996Z,5.20
2022-08-21T03:16:15.816Z,5.37
2022-08-21T03:18:44.237Z,4.53
2022-08-21T03:21:14.051Z,4.93
2022-08-21T03:23:43.023Z,4.83
2022-08-21T03:26:12.533Z,5.13
2022-08-21T03:28:42.647Z,4.83
2022-08-21T03:31:11.380Z,4.70
2022-08-21T03:33:39.808Z,5.33
2022-08-21T03:36:09.313Z,5.17
2022-08-21T03:38:38.700Z,5.83
2022-08-21T03:41:08.352Z,5.80
2022-08-21T03:43:37.720Z,6.03
2022-08-21T03:46:08.239Z,5.67
2022-08-21T03:48:38.381Z,5.90
2022-08-21T03:51:07.455Z,5.20
2022-08-21T03:53:37.156Z,6.00
2022-08-21T03:56:06.653Z,4.80
2022-08-21T03:58:35.131Z,6.10
2022-08-21T04:01:05.530Z,5.83
2022-08-21T04:03:36.754Z,5.77
2022-08-21T04:06:07.083Z,5.77
2022-08-21T04:08:35.787Z,5.80
2022-08-21T04:11:04.436Z,5.70
2022-08-21T04:13:32.887Z,6.10
2022-08-21T04:16:01.348Z,6.33
2022-08-21T04:18:29.837Z,7.10
2022-08-21T04:21:00.423Z,4.80
2022-08-21T04:23:28.978Z,5.27
2022-08-21T04:25:58.478Z,7.07
2022-08-21T04:28:28.914Z,6.67
2022-08-21T04:30:58.856Z,6.23
2022-08-21T04:33:27.332Z,6.07
2022-08-21T04:35:55.960Z,6.33
2022-08-21T04:38:25.722Z,4.13
2022-08-21T04:40:54.814Z,4.90
2022-08-21T04:43:24.444Z,5.47
2022-08-21T04:45:53.943Z,5.03
2022-08-21T04:48:25.112Z,6.07
2022-08-21T04:50:57.266Z,4.60
2022-08-21T04:53:29.598Z,5.30
2022-08-21T04:55:59.783Z,4.87
2022-08-21T04:58:28.950Z,5.23
2022-08-21T05:01:00.296Z,5.53
2022-08-21T05:03:29.200Z,5.80
2022-08-21T05:05:57.876Z,5.57
2022-08-21T05:08:28.986Z,5.50
2022-08-21T05:11:00.453Z,4.77
2022-08-21T05:13:29.569Z,5.10
2022-08-21T05:15:58.307Z,5.20
2022-08-21T05:18:26.942Z,5.40
2022-08-21T05:20:55.656Z,5.67
2022-08-21T05:23:24.115Z,5.90
2022-08-21T05:25:54.623Z,6.30
2022-08-21T05:28:23.340Z,4.90
2022-08-21T05:30:51.978Z,4.17
2022-08-21T05:33:20.543Z,3.90
2022-08-21T05:35:51.808Z,5.00
2022-08-21T05:38:20.505Z,4.37
2022-08-21T05:40:49.118Z,5.23
2022-08-21T05:43:19.113Z,5.30
2022-08-21T05:45:47.696Z,3.73
2022-08-21T05:48:18.751Z,4.80
2022-08-21T05:50:48.565Z,4.50
2022-08-21T05:53:18.867Z,5.57
2022-08-21T05:55:47.530Z,6.07
2022-08-21T05:58:17.396Z,4.73
2022-08-21T06:00:48.619Z,4.83
2022-08-21T06:03:20.282Z,5.47
2022-08-21T06:05:49.063Z,5.87
2022-08-21T06:08:18.542Z,4.53
2022-08-21T06:10:47.803Z,4.80
2022-08-21T06:13:17.567Z,4.20
2022-08-21T06:15:47.500Z,4.33
2022-08-21T06:18:16.098Z,4.60
2022-08-21T06:20:45.486Z,4.63
2022-08-21T06:23:13.929Z,5.23
2022-08-21T06:25:42.471Z,4.97
2022-08-21T06:28:12.123Z,5.00
2022-08-21T06:30:41.365Z,5.73
2022-08-21T06:33:11.802Z,4.43
2022-08-21T06:35:41.600Z,4.77
2022-08-21T06:38:10.534Z,4.73
2022-08-21T06:40:43.643Z,5.30
2022-08-21T06:43:18.737Z,4.63
2022-08-21T06:45:47.540Z,5.83
2022-08-21T06:48:19.466Z,5.73
2022-08-21T06:50:49.046Z,5.73
2022-08-21T06:53:21.759Z,6.07
2022-08-21T06:55:50.527Z,5.97
2022-08-21T06:58:20.701Z,4.53
2022-08-21T07:00:52.442Z,7.90
2022-08-21T07:03:25.979Z,7.87
2022-08-21T07:05:54.597Z,6.97
2022-08-21T07:08:23.526Z,6.50
2022-08-21T07:10:52.380Z,7.67
2022-08-21T07:13:20.962Z,7.10
2022-08-21T07:15:49.844Z,5.83
2022-08-21T07:18:18.554Z,5.93
2022-08-21T07:20:48.678Z,6.27
2022-08-21T07:23:27.371Z,7.00
2022-08-21T07:25:55.882Z,6.50
2022-08-21T07:28:25.220Z,7.10
2022-08-21T07:30:55.662Z,7.33
2022-08-21T07:33:24.663Z,9.47
2022-08-21T07:35:54.681Z,8.57
2022-08-21T07:38:23.216Z,9.00
2022-08-21T07:40:53.214Z,8.67
2022-08-21T07:43:22.604Z,7.70
2022-08-21T07:45:51.881Z,6.27
2022-08-21T07:48:20.312Z,8.53
2022-08-21T07:50:49.306Z,9.43
2022-08-21T07:53:19.210Z,8.67
2022-08-21T07:55:47.909Z,9.33
2022-08-21T07:58:16.369Z,10.00
2022-08-21T08:00:44.851Z,10.10
2022-08-21T08:03:13.378Z,9.63
2022-08-21T08:05:44.115Z,8.27
2022-08-21T08:08:12.528Z,10.10
2022-08-21T08:10:42.435Z,9.27
2022-08-21T08:13:12.685Z,8.57
2022-08-21T08:15:41.170Z,7.10
2022-08-21T08:18:11.360Z,6.63
2022-08-21T08:20:39.796Z,6.20
2022-08-21T08:23:08.236Z,6.10
2022-08-21T08:25:37.064Z,5.63
2022-08-21T08:28:17.326Z,6.00
2022-08-21T08:30:46.860Z,5.70
2022-08-21T08:33:15.822Z,6.20
2022-08-21T08:35:45.213Z,6.43
2022-08-21T08:38:16.745Z,6.47
2022-08-21T08:40:53.343Z,4.83
2022-08-21T08:43:23.531Z,5.63
2022-08-21T08:45:53.386Z,6.53
2022-08-21T08:48:38.992Z,5.07
2022-08-21T08:51:10.162Z,6.63
2022-08-21T08:53:48.642Z,5.93
2022-08-21T08:56:19.655Z,5.93
2022-08-21T08:58:50.262Z,5.80
2022-08-21T09:01:21.341Z,6.33
2022-08-21T09:03:52.827Z,6.60
2022-08-21T09:06:31.015Z,6.00
2022-08-21T09:09:05.082Z,6.87
2022-08-21T09:11:38.518Z,5.80
2022-08-21T09:14:16.522Z,6.50
2022-08-21T09:16:50.176Z,6.33
2022-08-21T09:19:35.383Z,6.57
2022-08-21T09:22:11.253Z,6.97
2022-08-21T09:24:51.958Z,6.63
2022-08-21T09:27:23.000Z,6.17
2022-08-21T09:29:55.396Z,6.50
2022-08-21T09:32:36.741Z,7.50
2022-08-21T09:35:09.827Z,7.37
2022-08-21T09:37:52.689Z,7.07
2022-08-21T09:40:33.437Z,7.03
2022-08-21T09:43:04.247Z,6.90
2022-08-21T09:45:35.436Z,6.77
2022-08-21T09:48:11.913Z,7.03
2022-08-21T09:50:40.894Z,6.13
2022-08-21T09:53:18.461Z,6.40
2022-08-21T09:56:10.838Z,6.73
2022-08-21T09:58:43.105Z,6.50
2022-08-21T10:01:17.638Z,7.07
2022-08-21T10:03:47.346Z,7.00
2022-08-21T10:06:25.273Z,6.33
2022-08-21T10:08:53.721Z,7.13
2022-08-21T10:11:26.570Z,6.40
2022-08-21T10:14:08.189Z,5.40
2022-08-21T10:16:47.365Z,5.73
2022-08-21T10:19:23.594Z,6.67
2022-08-21T10:22:01.820Z,6.43
2022-08-21T10:24:34.060Z,6.17
2022-08-21T10:27:10.887Z,6.67
2022-08-21T10:29:47.312Z,5.10
2022-08-21T10:32:29.556Z,5.57
2022-08-21T10:35:05.307Z,5.27
2022-08-21T10:37:42.661Z,5.50
2022-08-21T10:40:17.860Z,5.27
2022-08-21T10:43:03.524Z,4.53
2022-08-21T10:45:40.789Z,5.17
2022-08-21T10:48:20.342Z,4.87
2022-08-21T10:50:54.628Z,5.10
2022-08-21T10:53:49.380Z,5.13
2022-08-21T10:56:20.390Z,4.37
2022-08-21T10:58:55.951Z,5.57
2022-08-21T11:01:29.608Z,4.40
2022-08-21T11:04:11.574Z,4.83
2022-08-21T11:06:42.809Z,4.53
2022-08-21T11:09:14.104Z,5.00
2022-08-21T11:11:53.775Z,4.80
2022-08-21T11:14:41.789Z,6.80
2022-08-21T11:17:22.112Z,5.13
2022-08-21T11:19:55.823Z,4.90
2022-08-21T11:22:28.881Z,3.90
2022-08-21T11:25:01.407Z,4.30
2022-08-21T11:27:35.606Z,4.70
2022-08-21T11:30:05.889Z,4.37
2022-08-21T11:33:04.102Z,4.20
2022-08-21T11:35:38.464Z,3.87
2022-08-21T11:38:16.772Z,4.30
2022-08-21T11:40:54.640Z,4.50
2022-08-21T11:43:26.564Z,4.10
2022-08-21T11:45:56.801Z,4.60
2022-08-21T11:48:39.279Z,4.77
2022-08-21T11:51:14.462Z,4.10
2022-08-21T11:53:54.066Z,5.23
2022-08-21T11:56:27.230Z,4.53
2022-08-21T11:58:57.812Z,5.30
2022-08-21T12:01:30.230Z,5.47
2022-08-21T12:04:01.295Z,5.33
2022-08-21T12:06:34.515Z,5.50
2022-08-21T12:09:06.020Z,5.80
2022-08-21T12:11:35.009Z,4.87
2022-08-21T12:14:16.207Z,5.50
2022-08-21T12:16:46.545Z,4.90
2022-08-21T12:19:30.625Z,5.50
2022-08-21T12:22:10.849Z,5.57
2022-08-21T12:24:41.576Z,5.97
2022-08-21T12:27:26.497Z,5.23
2022-08-21T12:29:57.495Z,4.80
2022-08-21T12:32:29.869Z,4.60
2022-08-21T12:35:04.648Z,4.50
2022-08-21T12:37:41.601Z,4.23
2022-08-21T12:40:16.630Z,3.63
2022-08-21T12:42:58.634Z,3.27
2022-08-21T12:45:31.082Z,2.90
2022-08-21T12:48:02.547Z,3.20
2022-08-21T12:50:37.492Z,3.47
2022-08-21T12:53:20.556Z,3.10
2022-08-21T12:55:49.935Z,2.90
2022-08-21T12:58:20.466Z,3.67
2022-08-21T13:00:54.383Z,3.43
2022-08-21T13:03:23.749Z,3.40
2022-08-21T13:05:52.955Z,3.87
2022-08-21T13:08:24.377Z,4.47
2022-08-21T13:11:00.048Z,4.13
2022-08-21T13:13:37.834Z,3.80
2022-08-21T13:16:21.751Z,3.60
2022-08-21T13:18:59.635Z,3.60
2022-08-21T13:21:33.473Z,3.07
2022-08-21T13:24:40.712Z,3.30
2022-08-21T13:27:24.207Z,2.90
2022-08-21T13:30:04.852Z,3.13
2022-08-21T13:32:35.775Z,3.23
2022-08-21T13:35:11.323Z,3.40
2022-08-21T13:37:41.489Z,2.83
2022-08-21T13:40:14.475Z,2.70
2022-08-21T13:42:44.421Z,3.10
2022-08-21T13:45:16.095Z,2.80
2022-08-21T13:47:45.750Z,3.30
2022-08-21T13:50:16.646Z,2.90
2022-08-21T13:52:58.497Z,3.30
2022-08-21T13:55:38.354Z,3.30
2022-08-21T13:58:08.032Z,3.70
2022-08-21T14:00:38.772Z,3.43
2022-08-21T14:03:09.210Z,3.40
2022-08-21T14:05:39.741Z,3.50
2022-08-21T14:08:10.512Z,3.50
2022-08-21T14:10:47.196Z,3.33
2022-08-21T14:13:30.892Z,3.53
2022-08-21T14:16:00.442Z,3.37
2022-08-21T14:18:29.349Z,3.53
2022-08-21T14:21:07.293Z,3.30
2022-08-21T14:23:35.805Z,3.07
2022-08-21T14:26:07.045Z,3.57
2022-08-21T14:28:37.274Z,3.47
2022-08-21T14:31:15.684Z,3.47
2022-08-21T14:33:44.864Z,3.47
2022-08-21T14:36:13.534Z,3.27
2022-08-21T14:38:43.161Z,3.03
2022-08-21T14:41:18.457Z,3.20
2022-08-21T14:43:48.178Z,3.10
2022-08-21T14:46:31.183Z,3.07
2022-08-21T14:49:00.125Z,2.87
2022-08-21T14:51:29.206Z,2.90
2022-08-21T14:53:57.635Z,3.20
2022-08-21T14:56:27.716Z,2.77
2022-08-21T14:58:56.822Z,2.50
2022-08-21T15:01:25.351Z,2.47
2022-08-21T15:03:53.756Z,2.50
2022-08-21T15:06:22.543Z,2.50
2022-08-21T15:08:51.028Z,3.00
2022-08-21T15:11:41.488Z,2.50
2022-08-21T15:14:15.865Z,2.80
2022-08-21T15:16:44.295Z,2.87
2022-08-21T15:19:12.722Z,4.13
2022-08-21T15:21:41.199Z,3.27
2022-08-21T15:24:09.704Z,2.63
2022-08-21T15:26:38.473Z,2.90
2022-08-21T15:29:08.419Z,2.60
2022-08-21T15:31:38.511Z,2.17
2022-08-21T15:34:07.056Z,2.50
2022-08-21T15:36:35.569Z,2.63
2022-08-21T15:39:04.374Z,2.78
2022-08-21T15:41:32.915Z,2.63
2022-08-21T15:44:01.389Z,2.70
2022-08-21T15:46:29.941Z,2.67
2022-08-21T15:49:00.065Z,2.60
2022-08-21T15:51:28.774Z,2.47
2022-08-21T15:53:57.472Z,2.90
2022-08-21T15:56:28.504Z,2.47
2022-08-21T15:59:02.993Z,2.60
2022-08-21T16:01:36.117Z,2.20
2022-08-21T16:04:24.431Z,2.50
2022-08-21T16:06:56.472Z,2.40
2022-08-21T16:09:26.732Z,2.40
2022-08-21T16:11:55.264Z,2.60
2022-08-21T16:14:23.896Z,2.45
2022-08-21T16:16:52.685Z,2.80
2022-08-21T16:19:22.680Z,2.60
2022-08-21T16:21:51.101Z,2.43
2022-08-21T16:24:19.610Z,2.50
2022-08-21T16:26:56.172Z,2.63
2022-08-21T16:29:36.580Z,2.50
2022-08-21T16:32:05.540Z,2.40
2022-08-21T16:34:35.464Z,2.55
2022-08-21T16:37:04.384Z,2.70
2022-08-21T16:39:33.002Z,2.70
2022-08-21T16:42:01.541Z,2.88
2022-08-21T16:44:30.242Z,2.55
2022-08-21T16:46:59.811Z,2.58
2022-08-21T16:49:28.640Z,2.60
2022-08-21T16:51:58.439Z,2.60
2022-08-21T16:54:26.907Z,1.98
2022-08-21T16:56:55.491Z,2.80
2022-08-21T16:59:24.529Z,2.63
2022-08-21T17:01:54.586Z,2.57
2022-08-21T17:04:23.161Z,2.72
2022-08-21T17:06:52.259Z,2.60
2022-08-21T17:09:22.003Z,2.50
2022-08-21T17:11:50.638Z,2.80
2022-08-21T17:14:21.324Z,3.03
2022-08-21T17:16:52.939Z,2.67
2022-08-21T17:19:22.371Z,3.30
2022-08-21T17:21:50.857Z,2.90
2022-08-21T17:24:19.524Z,2.50
2022-08-21T17:26:49.371Z,2.53
2022-08-21T17:29:20.034Z,2.77
2022-08-21T17:31:48.531Z,2.50
2022-08-21T17:34:17.343Z,3.17
2022-08-21T17:36:46.164Z,2.60
2022-08-21T17:39:21.933Z,2.60
2022-08-21T17:41:57.935Z,2.90
2022-08-21T17:44:27.116Z,2.80
2022-08-21T17:46:55.806Z,2.97
2022-08-21T17:49:25.332Z,2.70
2022-08-21T17:51:53.804Z,2.60
2022-08-21T17:54:22.289Z,3.10
2022-08-21T17:56:52.524Z,2.90
2022-08-21T17:59:21.109Z,3.10
2022-08-21T18:01:49.717Z,3.53
2022-08-21T18:04:18.285Z,3.00
2022-08-21T18:06:47.007Z,3.53
2022-08-21T18:09:15.542Z,3.30
2022-08-21T18:11:44.770Z,3.10
2022-08-21T18:14:15.227Z,3.10
2022-08-21T18:16:43.700Z,3.40
2022-08-21T18:19:15.947Z,3.07
2022-08-21T18:21:44.585Z,3.73
2022-08-21T18:24:13.078Z,3.40
2022-08-21T18:26:42.272Z,3.60
2022-08-21T18:29:15.042Z,3.53
2022-08-21T18:31:46.322Z,3.30
2022-08-21T18:34:22.213Z,4.00
2022-08-21T18:36:51.614Z,3.20
2022-08-21T18:39:35.999Z,3.60
2022-08-21T18:42:07.226Z,3.43
2022-08-21T18:44:37.490Z,3.70
2022-08-21T18:47:08.669Z,3.60
2022-08-21T18:49:37.209Z,3.63
2022-08-21T18:52:06.345Z,3.73
2022-08-21T18:54:34.899Z,4.03
2022-08-21T18:57:06.653Z,3.97
2022-08-21T18:59:40.092Z,4.20
2022-08-21T19:02:11.357Z,4.53
2022-08-21T19:04:44.959Z,4.40
2022-08-21T19:07:14.617Z,4.60
2022-08-21T19:09:52.655Z,4.17
2022-08-21T19:15:22.659Z,4.20
2022-08-21T19:17:52.694Z,4.27
2022-08-21T19:20:26.500Z,4.80
2022-08-21T19:22:58.500Z,3.30
2022-08-21T19:25:33.460Z,4.00
2022-08-21T19:28:04.001Z,3.90
2022-08-21T19:30:45.714Z,5.10
2022-08-21T19:33:23.304Z,4.30
2022-08-21T19:35:52.943Z,4.70
2022-08-21T19:38:21.793Z,3.97
2022-08-21T19:40:50.818Z,4.17
2022-08-21T19:43:23.287Z,3.80
2022-08-21T19:45:56.272Z,3.93
2022-08-21T19:48:25.075Z,4.20
2022-08-21T19:50:54.752Z,4.10
2022-08-21T19:53:23.485Z,4.00
2022-08-21T19:55:51.875Z,4.33
2022-08-21T19:58:29.651Z,4.13
2022-08-21T20:00:59.488Z,4.30
2022-08-21T20:03:28.158Z,3.93
2022-08-21T20:05:56.601Z,4.17
2022-08-21T20:11:15.818Z,4.30
2022-08-21T20:13:44.655Z,3.80
2022-08-21T20:16:16.376Z,5.37
2022-08-21T20:18:44.908Z,5.50
2022-08-21T20:21:13.593Z,4.67
2022-08-21T20:23:48.780Z,4.47
2022-08-21T20:26:18.483Z,4.70
2022-08-21T20:28:50.409Z,4.63
2022-08-21T20:31:21.875Z,4.57
2022-08-21T20:33:51.444Z,5.10
2022-08-21T20:36:21.266Z,4.60
2022-08-21T20:38:51.760Z,4.97
2022-08-21T20:41:31.051Z,4.33
2022-08-21T20:44:00.965Z,5.07
2022-08-21T20:49:23.474Z,4.83
2022-08-21T20:51:53.278Z,5.13
2022-08-21T20:54:27.315Z,4.43
2022-08-21T20:56:59.211Z,4.80
2022-08-21T20:59:42.229Z,4.17
2022-08-21T21:02:33.849Z,4.90
2022-08-21T21:05:06.118Z,5.13
2022-08-21T21:07:39.360Z,4.77
2022-08-21T21:10:12.139Z,5.43
2022-08-21T21:12:44.382Z,4.77
2022-08-21T21:15:23.403Z,4.30
2022-08-21T21:18:03.240Z,5.10
2022-08-21T21:20:36.043Z,4.90
2022-08-21T21:23:14.522Z,4.70
2022-08-21T21:25:53.864Z,4.40
2022-08-21T21:28:28.388Z,4.50
2022-08-21T21:30:58.068Z,4.33
2022-08-21T21:33:28.619Z,4.40
2022-08-21T21:36:01.193Z,4.80
2022-08-21T21:38:35.346Z,4.40
2022-08-21T21:41:12.276Z,4.40
2022-08-21T21:43:59.325Z,4.60
2022-08-21T21:46:34.755Z,4.50
2022-08-21T21:49:13.288Z,4.90
2022-08-21T21:52:00.162Z,5.13
2022-08-21T21:54:46.888Z,5.33
2022-08-21T21:57:36.564Z,4.50
2022-08-21T22:00:10.276Z,4.77
2022-08-21T22:02:47.574Z,4.30
2022-08-21T22:05:26.191Z,5.77
2022-08-21T22:07:58.887Z,4.40
2022-08-21T22:10:33.868Z,4.73
2022-08-21T22:13:26.133Z,4.00
2022-08-21T22:15:55.954Z,4.97
2022-08-21T22:18:28.319Z,4.23
2022-08-21T22:21:02.641Z,4.87
2022-08-21T22:23:34.165Z,4.80
2022-08-21T22:26:05.917Z,4.83
2022-08-21T22:28:39.394Z,5.13
2022-08-21T22:31:18.337Z,5.30
2022-08-21T22:34:02.314Z,5.70
2022-08-21T22:36:34.018Z,4.93
2022-08-21T22:39:05.361Z,5.07
2022-08-21T22:41:39.469Z,4.73
2022-08-21T22:44:12.050Z,5.23
2022-08-21T22:47:00.842Z,5.57
2022-08-21T22:49:35.410Z,5.00
2022-08-21T22:52:11.504Z,5.23
2022-08-21T22:54:42.366Z,5.57
2022-08-21T22:57:13.481Z,5.07
2022-08-21T22:59:53.784Z,4.87
2022-08-21T23:02:31.673Z,5.07
2022-08-21T23:05:01.861Z,4.97
2022-08-21T23:07:35.570Z,5.53
2022-08-21T23:10:20.977Z,5.17
2022-08-21T23:12:50.930Z,5.40
2022-08-21T23:15:22.914Z,4.37
2022-08-21T23:18:00.989Z,4.70
2022-08-21T23:20:34.810Z,4.60
2022-08-21T23:23:12.027Z,5.60
2022-08-21T23:25:57.866Z,5.30
2022-08-21T23:28:43.680Z,4.77
2022-08-21T23:31:18.784Z,4.90
2022-08-21T23:34:05.745Z,4.83
2022-08-21T23:37:01.146Z,4.93
2022-08-21T23:39:43.972Z,4.77
2022-08-21T23:42:21.655Z,5.27
2022-08-21T23:44:59.981Z,5.07
2022-08-21T23:47:42.536Z,4.27
2022-08-21T23:50:14.218Z,4.30
2022-08-21T23:52:52.199Z,4.03
2022-08-21T23:55:34.544Z,4.67
2022-08-21T23:58:18.547Z,4.03
